sensor_id;sensor_type;location;lat;lon;timestamp;P1;durP1;ratioP1;P2;durP2;ratioP2
55575;SDS011;41437;45.478;9.116;2022-08-25T07:49:30;6.13;;;2.80;;
55575;SDS011;41437;45.478;9.116;2022-08-25T07:52:31;8.10;;;3.10;;
55575;SDS011;41437;45.478;9.116;2022-08-25T07:55:33;5.60;;;2.63;;
55575;SDS011;41437;45.478;9.116;2022-08-25T07:58:36;6.80;;;3.28;;
55575;SDS011;41437;45.478;9.116;2022-08-25T08:01:39;8.43;;;3.20;;
55575;SDS011;41437;45.478;9.116;2022-08-25T08:04:42;8.90;;;3.13;;
55575;SDS011;41437;45.478;9.116;2022-08-25T08:07:44;8.40;;;3.40;;
55575;SDS011;41437;45.478;9.116;2022-08-25T08:10:45;8.00;;;3.30;;
55575;SDS011;41437;45.478;9.116;2022-08-25T08:13:47;8.57;;;3.47;;
55575;SDS011;41437;45.478;9.116;2022-08-25T08:16:50;8.93;;;3.03;;
55575;SDS011;41437;45.478;9.116;2022-08-25T08:19:54;9.30;;;3.20;;
55575;SDS011;41437;45.478;9.116;2022-08-25T08:25:57;13.10;;;4.40;;
55575;SDS011;41437;45.478;9.116;2022-08-25T08:28:59;6.90;;;3.07;;
55575;SDS011;41437;45.478;9.116;2022-08-25T08:32:02;5.90;;;2.67;;
55575;SDS011;41437;45.478;9.116;2022-08-25T08:35:13;32.42;;;24.55;;
55575;SDS011;41437;45.478;9.116;2022-08-25T08:38:17;30.77;;;23.02;;
55575;SDS011;41437;45.478;9.116;2022-08-25T08:41:33;21.92;;;15.98;;
55575;SDS011;41437;45.478;9.116;2022-08-25T08:45:05;11.77;;;5.78;;
55575;SDS011;41437;45.478;9.116;2022-08-25T08:48:26;10.30;;;4.63;;
55575;SDS011;41437;45.478;9.116;2022-08-25T08:51:50;8.18;;;3.17;;
55575;SDS011;41437;45.478;9.116;2022-08-25T08:54:59;5.38;;;3.30;;
55575;SDS011;41437;45.478;9.116;2022-08-25T08:58:07;31.17;;;22.40;;
55575;SDS011;41437;45.478;9.116;2022-08-25T09:01:15;11.05;;;5.88;;
55575;SDS011;41437;45.478;9.116;2022-08-25T09:04:20;87.80;;;61.30;;
55575;SDS011;41437;45.478;9.116;2022-08-25T09:07:33;162.70;;;106.82;;
55575;SDS011;41437;45.478;9.116;2022-08-25T09:11:01;154.18;;;105.60;;
55575;SDS011;41437;45.478;9.116;2022-08-25T09:14:24;10.77;;;6.85;;
55575;SDS011;41437;45.478;9.116;2022-08-25T09:17:42;59.63;;;44.08;;
55575;SDS011;41437;45.478;9.116;2022-08-25T09:21:08;11.85;;;3.88;;
55575;SDS011;41437;45.478;9.116;2022-08-25T09:24:33;21.30;;;16.30;;
55575;SDS011;41437;45.478;9.116;2022-08-25T09:27:46;13.07;;;8.98;;
55575;SDS011;41437;45.478;9.116;2022-08-25T09:30:56;16.60;;;13.13;;
55575;SDS011;41437;45.478;9.116;2022-08-25T09:34:00;14.70;;;9.27;;
55575;SDS011;41437;45.478;9.116;2022-08-25T09:37:04;11.35;;;5.45;;
55575;SDS011;41437;45.478;9.116;2022-08-25T09:43:50;7.15;;;2.80;;
55575;SDS011;41437;45.478;9.116;2022-08-25T09:46:54;7.05;;;2.63;;
55575;SDS011;41437;45.478;9.116;2022-08-25T09:50:02;7.35;;;2.60;;
55575;SDS011;41437;45.478;9.116;2022-08-25T09:53:09;8.50;;;2.47;;
55575;SDS011;41437;45.478;9.116;2022-08-25T09:56:14;6.05;;;2.47;;
55575;SDS011;41437;45.478;9.116;2022-08-25T09:59:22;6.55;;;2.13;;
55575;SDS011;41437;45.478;9.116;2022-08-25T10:02:26;6.38;;;2.40;;
55575;SDS011;41437;45.478;9.116;2022-08-25T10:05:29;14.65;;;4.40;;
55575;SDS011;41437;45.478;9.116;2022-08-25T10:08:35;11.82;;;3.38;;
55575;SDS011;41437;45.478;9.116;2022-08-25T10:11:40;6.93;;;2.65;;
55575;SDS011;41437;45.478;9.116;2022-08-25T10:14:45;5.32;;;1.90;;
55575;SDS011;41437;45.478;9.116;2022-08-25T10:17:47;5.78;;;2.10;;
55575;SDS011;41437;45.478;9.116;2022-08-25T10:21:05;5.70;;;2.30;;
55575;SDS011;41437;45.478;9.116;2022-08-25T10:24:11;5.53;;;2.13;;
55575;SDS011;41437;45.478;9.116;2022-08-25T10:27:19;7.10;;;2.20;;
55575;SDS011;41437;45.478;9.116;2022-08-25T10:30:29;5.80;;;2.00;;
55575;SDS011;41437;45.478;9.116;2022-08-25T10:33:52;7.30;;;2.22;;
55575;SDS011;41437;45.478;9.116;2022-08-25T10:37:07;5.88;;;2.10;;
55575;SDS011;41437;45.478;9.116;2022-08-25T10:40:19;5.13;;;2.10;;
55575;SDS011;41437;45.478;9.116;2022-08-25T10:43:27;6.47;;;1.85;;
55575;SDS011;41437;45.478;9.116;2022-08-25T10:46:36;5.72;;;2.20;;
55575;SDS011;41437;45.478;9.116;2022-08-25T10:49:51;5.95;;;2.28;;
55575;SDS011;41437;45.478;9.116;2022-08-25T10:53:03;4.82;;;2.13;;
55575;SDS011;41437;45.478;9.116;2022-08-25T10:56:16;16.92;;;3.10;;
55575;SDS011;41437;45.478;9.116;2022-08-25T10:59:24;6.57;;;2.30;;
55575;SDS011;41437;45.478;9.116;2022-08-25T11:02:57;6.93;;;2.47;;
55575;SDS011;41437;45.478;9.116;2022-08-25T11:06:08;5.40;;;2.42;;
55575;SDS011;41437;45.478;9.116;2022-08-25T11:09:17;3.63;;;2.28;;
55575;SDS011;41437;45.478;9.116;2022-08-25T11:12:25;4.10;;;2.22;;
55575;SDS011;41437;45.478;9.116;2022-08-25T11:15:32;5.68;;;2.20;;
55575;SDS011;41437;45.478;9.116;2022-08-25T11:18:42;5.38;;;2.63;;
55575;SDS011;41437;45.478;9.116;2022-08-25T11:21:51;6.07;;;2.38;;
55575;SDS011;41437;45.478;9.116;2022-08-25T11:25:01;5.47;;;2.50;;
55575;SDS011;41437;45.478;9.116;2022-08-25T11:28:13;5.22;;;2.03;;
55575;SDS011;41437;45.478;9.116;2022-08-25T11:31:22;5.05;;;2.10;;
55575;SDS011;41437;45.478;9.116;2022-08-25T11:34:28;5.07;;;2.30;;
55575;SDS011;41437;45.478;9.116;2022-08-25T11:37:32;4.97;;;2.28;;
55575;SDS011;41437;45.478;9.116;2022-08-25T11:40:48;6.25;;;2.20;;
55575;SDS011;41437;45.478;9.116;2022-08-25T11:44:12;4.40;;;2.03;;
55575;SDS011;41437;45.478;9.116;2022-08-25T11:51:04;5.70;;;2.08;;
55575;SDS011;41437;45.478;9.116;2022-08-25T11:54:15;5.38;;;2.30;;
55575;SDS011;41437;45.478;9.116;2022-08-25T11:57:22;5.18;;;2.10;;
55575;SDS011;41437;45.478;9.116;2022-08-25T12:00:35;3.42;;;1.98;;
55575;SDS011;41437;45.478;9.116;2022-08-25T12:03:48;7.28;;;2.40;;
55575;SDS011;41437;45.478;9.116;2022-08-25T12:10:22;4.32;;;2.00;;
55575;SDS011;41437;45.478;9.116;2022-08-25T12:13:41;4.30;;;2.10;;
55575;SDS011;41437;45.478;9.116;2022-08-25T12:16:59;5.30;;;2.25;;
55575;SDS011;41437;45.478;9.116;2022-08-25T12:23:11;6.27;;;2.40;;
55575;SDS011;41437;45.478;9.116;2022-08-25T12:26:16;3.95;;;2.30;;
55575;SDS011;41437;45.478;9.116;2022-08-25T12:29:28;4.95;;;2.20;;
55575;SDS011;41437;45.478;9.116;2022-08-25T12:32:38;4.60;;;2.10;;
55575;SDS011;41437;45.478;9.116;2022-08-25T12:35:54;4.38;;;2.35;;
55575;SDS011;41437;45.478;9.116;2022-08-25T12:39:09;5.35;;;2.42;;
55575;SDS011;41437;45.478;9.116;2022-08-25T12:42:21;4.13;;;2.10;;
55575;SDS011;41437;45.478;9.116;2022-08-25T12:45:35;4.80;;;2.05;;
55575;SDS011;41437;45.478;9.116;2022-08-25T12:48:41;5.00;;;2.20;;
55575;SDS011;41437;45.478;9.116;2022-08-25T12:52:05;5.45;;;2.60;;
55575;SDS011;41437;45.478;9.116;2022-08-25T12:55:13;5.63;;;2.55;;
55575;SDS011;41437;45.478;9.116;2022-08-25T12:58:15;8.30;;;2.42;;
55575;SDS011;41437;45.478;9.116;2022-08-25T13:01:20;4.95;;;2.38;;
55575;SDS011;41437;45.478;9.116;2022-08-25T13:04:34;4.65;;;2.10;;
55575;SDS011;41437;45.478;9.116;2022-08-25T13:07:57;5.53;;;2.20;;
55575;SDS011;41437;45.478;9.116;2022-08-25T13:11:17;3.88;;;2.10;;
55575;SDS011;41437;45.478;9.116;2022-08-25T13:14:24;4.50;;;2.10;;
55575;SDS011;41437;45.478;9.116;2022-08-25T13:17:35;4.90;;;2.33;;
55575;SDS011;41437;45.478;9.116;2022-08-25T13:20:37;3.70;;;2.20;;
55575;SDS011;41437;45.478;9.116;2022-08-25T13:23:40;4.67;;;2.37;;
55575;SDS011;41437;45.478;9.116;2022-08-25T13:26:49;4.70;;;2.15;;
55575;SDS011;41437;45.478;9.116;2022-08-25T13:29:54;4.20;;;2.42;;
55575;SDS011;41437;45.478;9.116;2022-08-25T13:32:58;4.10;;;2.45;;
55575;SDS011;41437;45.478;9.116;2022-08-25T13:36:00;4.88;;;2.25;;
55575;SDS011;41437;45.478;9.116;2022-08-25T13:39:21;5.15;;;2.10;;
55575;SDS011;41437;45.478;9.116;2022-08-25T13:42:27;3.88;;;2.30;;
55575;SDS011;41437;45.478;9.116;2022-08-25T13:45:30;6.38;;;2.28;;
55575;SDS011;41437;45.478;9.116;2022-08-25T13:48:37;4.22;;;2.17;;
55575;SDS011;41437;45.478;9.116;2022-08-25T13:51:49;6.28;;;2.30;;
55575;SDS011;41437;45.478;9.116;2022-08-25T13:54:56;5.30;;;2.08;;
55575;SDS011;41437;45.478;9.116;2022-08-25T13:58:01;4.13;;;2.13;;
55575;SDS011;41437;45.478;9.116;2022-08-25T14:01:07;7.30;;;2.10;;
55575;SDS011;41437;45.478;9.116;2022-08-25T14:04:19;4.63;;;2.05;;
55575;SDS011;41437;45.478;9.116;2022-08-25T14:07:27;4.60;;;2.10;;
55575;SDS011;41437;45.478;9.116;2022-08-25T14:10:33;5.30;;;2.10;;
55575;SDS011;41437;45.478;9.116;2022-08-25T14:13:39;5.57;;;2.63;;
55575;SDS011;41437;45.478;9.116;2022-08-25T14:16:45;3.60;;;2.15;;
55575;SDS011;41437;45.478;9.116;2022-08-25T14:19:49;4.53;;;2.05;;
55575;SDS011;41437;45.478;9.116;2022-08-25T14:22:53;3.63;;;2.30;;
55575;SDS011;41437;45.478;9.116;2022-08-25T14:25:57;4.07;;;2.30;;
55575;SDS011;41437;45.478;9.116;2022-08-25T14:29:00;4.15;;;2.15;;
55575;SDS011;41437;45.478;9.116;2022-08-25T14:32:02;4.95;;;2.15;;
55575;SDS011;41437;45.478;9.116;2022-08-25T14:35:04;6.47;;;2.17;;
55575;SDS011;41437;45.478;9.116;2022-08-25T14:38:07;5.43;;;2.20;;
55575;SDS011;41437;45.478;9.116;2022-08-25T14:41:11;6.85;;;2.13;;
55575;SDS011;41437;45.478;9.116;2022-08-25T14:44:14;5.32;;;2.40;;
55575;SDS011;41437;45.478;9.116;2022-08-25T14:47:16;4.35;;;2.20;;
55575;SDS011;41437;45.478;9.116;2022-08-25T14:50:19;4.35;;;2.30;;
55575;SDS011;41437;45.478;9.116;2022-08-25T14:53:22;4.03;;;2.15;;
55575;SDS011;41437;45.478;9.116;2022-08-25T14:59:27;4.50;;;2.33;;
55575;SDS011;41437;45.478;9.116;2022-08-25T15:02:30;3.35;;;2.03;;
55575;SDS011;41437;45.478;9.116;2022-08-25T15:05:34;3.50;;;2.10;;
55575;SDS011;41437;45.478;9.116;2022-08-25T15:08:36;6.07;;;2.30;;
55575;SDS011;41437;45.478;9.116;2022-08-25T15:11:56;5.30;;;2.15;;
55575;SDS011;41437;45.478;9.116;2022-08-25T15:15:00;4.55;;;2.17;;
55575;SDS011;41437;45.478;9.116;2022-08-25T15:18:03;5.03;;;2.50;;
55575;SDS011;41437;45.478;9.116;2022-08-25T15:21:05;5.88;;;2.38;;
55575;SDS011;41437;45.478;9.116;2022-08-25T15:24:08;4.00;;;2.40;;
55575;SDS011;41437;45.478;9.116;2022-08-25T15:27:10;5.80;;;2.10;;
55575;SDS011;41437;45.478;9.116;2022-08-25T15:30:15;5.40;;;2.20;;
55575;SDS011;41437;45.478;9.116;2022-08-25T15:33:17;3.80;;;2.10;;
55575;SDS011;41437;45.478;9.116;2022-08-25T15:36:20;4.43;;;1.80;;
55575;SDS011;41437;45.478;9.116;2022-08-25T15:39:24;4.80;;;2.33;;
55575;SDS011;41437;45.478;9.116;2022-08-25T15:42:26;9.95;;;8.10;;
55575;SDS011;41437;45.478;9.116;2022-08-25T15:45:29;11.43;;;9.38;;
55575;SDS011;41437;45.478;9.116;2022-08-25T15:48:31;23.70;;;20.00;;
55575;SDS011;41437;45.478;9.116;2022-08-25T15:51:34;16.75;;;10.07;;
55575;SDS011;41437;45.478;9.116;2022-08-25T15:54:36;9.00;;;6.47;;
55575;SDS011;41437;45.478;9.116;2022-08-25T15:57:38;8.50;;;5.40;;
55575;SDS011;41437;45.478;9.116;2022-08-25T16:00:41;6.28;;;3.53;;
55575;SDS011;41437;45.478;9.116;2022-08-25T16:03:44;3.80;;;2.10;;
55575;SDS011;41437;45.478;9.116;2022-08-25T16:06:45;5.23;;;2.80;;
55575;SDS011;41437;45.478;9.116;2022-08-25T16:09:47;3.33;;;1.90;;
55575;SDS011;41437;45.478;9.116;2022-08-25T16:12:49;9.45;;;3.10;;
55575;SDS011;41437;45.478;9.116;2022-08-25T16:15:52;4.90;;;2.90;;
55575;SDS011;41437;45.478;9.116;2022-08-25T16:18:54;7.43;;;2.50;;
55575;SDS011;41437;45.478;9.116;2022-08-25T16:24:58;5.63;;;2.95;;
55575;SDS011;41437;45.478;9.116;2022-08-25T16:28:01;4.47;;;2.30;;
55575;SDS011;41437;45.478;9.116;2022-08-25T16:31:04;4.97;;;2.20;;
55575;SDS011;41437;45.478;9.116;2022-08-25T16:34:09;4.25;;;1.90;;
55575;SDS011;41437;45.478;9.116;2022-08-25T16:37:11;4.03;;;2.20;;
55575;SDS011;41437;45.478;9.116;2022-08-25T16:40:13;4.60;;;2.70;;
55575;SDS011;41437;45.478;9.116;2022-08-25T16:43:16;5.40;;;2.28;;
55575;SDS011;41437;45.478;9.116;2022-08-25T16:46:19;4.27;;;2.00;;
55575;SDS011;41437;45.478;9.116;2022-08-25T16:49:22;3.90;;;2.10;;
55575;SDS011;41437;45.478;9.116;2022-08-25T16:52:23;4.72;;;2.10;;
55575;SDS011;41437;45.478;9.116;2022-08-25T16:55:42;4.18;;;1.90;;
55575;SDS011;41437;45.478;9.116;2022-08-25T16:58:44;4.40;;;2.37;;
55575;SDS011;41437;45.478;9.116;2022-08-25T17:01:47;4.03;;;1.98;;
55575;SDS011;41437;45.478;9.116;2022-08-25T17:04:49;4.45;;;2.08;;
55575;SDS011;41437;45.478;9.116;2022-08-25T17:07:50;5.03;;;2.30;;
55575;SDS011;41437;45.478;9.116;2022-08-25T17:11:07;3.75;;;2.00;;
55575;SDS011;41437;45.478;9.116;2022-08-25T17:14:10;4.82;;;2.35;;
55575;SDS011;41437;45.478;9.116;2022-08-25T17:17:15;3.78;;;2.10;;
55575;SDS011;41437;45.478;9.116;2022-08-25T17:20:17;5.15;;;2.10;;
55575;SDS011;41437;45.478;9.116;2022-08-25T17:23:19;5.97;;;2.40;;
55575;SDS011;41437;45.478;9.116;2022-08-25T17:26:21;7.03;;;2.40;;
55575;SDS011;41437;45.478;9.116;2022-08-25T17:29:23;6.05;;;2.35;;
55575;SDS011;41437;45.478;9.116;2022-08-25T17:32:26;4.35;;;2.42;;
55575;SDS011;41437;45.478;9.116;2022-08-25T17:35:28;6.65;;;2.60;;
55575;SDS011;41437;45.478;9.116;2022-08-25T17:38:30;6.13;;;2.65;;
55575;SDS011;41437;45.478;9.116;2022-08-25T17:41:32;7.40;;;2.55;;
55575;SDS011;41437;45.478;9.116;2022-08-25T17:44:34;6.22;;;2.40;;
55575;SDS011;41437;45.478;9.116;2022-08-25T17:47:37;7.28;;;2.60;;
55575;SDS011;41437;45.478;9.116;2022-08-25T17:50:39;6.07;;;3.00;;
55575;SDS011;41437;45.478;9.116;2022-08-25T17:53:41;5.97;;;2.60;;
55575;SDS011;41437;45.478;9.116;2022-08-25T17:56:43;6.40;;;2.60;;
55575;SDS011;41437;45.478;9.116;2022-08-25T17:59:45;6.93;;;2.35;;
55575;SDS011;41437;45.478;9.116;2022-08-25T18:02:48;5.32;;;2.50;;
55575;SDS011;41437;45.478;9.116;2022-08-25T18:05:50;6.47;;;2.80;;
55575;SDS011;41437;45.478;9.116;2022-08-25T18:08:52;4.32;;;2.63;;
55575;SDS011;41437;45.478;9.116;2022-08-25T18:11:53;4.00;;;2.33;;
55575;SDS011;41437;45.478;9.116;2022-08-25T18:14:55;6.35;;;3.58;;
55575;SDS011;41437;45.478;9.116;2022-08-25T18:17:58;8.32;;;4.90;;
55575;SDS011;41437;45.478;9.116;2022-08-25T18:21:00;7.43;;;3.80;;
55575;SDS011;41437;45.478;9.116;2022-08-25T18:24:02;8.52;;;3.80;;
55575;SDS011;41437;45.478;9.116;2022-08-25T18:27:04;8.88;;;4.82;;
55575;SDS011;41437;45.478;9.116;2022-08-25T18:30:07;24.50;;;10.73;;
55575;SDS011;41437;45.478;9.116;2022-08-25T18:33:12;10.10;;;5.60;;
55575;SDS011;41437;45.478;9.116;2022-08-25T18:36:14;15.82;;;10.13;;
55575;SDS011;41437;45.478;9.116;2022-08-25T18:39:16;11.40;;;6.53;;
55575;SDS011;41437;45.478;9.116;2022-08-25T18:42:38;10.15;;;6.50;;
55575;SDS011;41437;45.478;9.116;2022-08-25T18:45:41;14.13;;;8.32;;
55575;SDS011;41437;45.478;9.116;2022-08-25T18:48:48;14.45;;;7.32;;
55575;SDS011;41437;45.478;9.116;2022-08-25T18:51:50;9.48;;;4.93;;
55575;SDS011;41437;45.478;9.116;2022-08-25T18:54:52;10.57;;;5.95;;
55575;SDS011;41437;45.478;9.116;2022-08-25T19:00:57;7.13;;;4.40;;
55575;SDS011;41437;45.478;9.116;2022-08-25T19:07:03;6.75;;;3.80;;
55575;SDS011;41437;45.478;9.116;2022-08-25T19:10:08;5.97;;;3.08;;
55575;SDS011;41437;45.478;9.116;2022-08-25T19:13:09;5.53;;;3.20;;
55575;SDS011;41437;45.478;9.116;2022-08-25T19:16:12;5.70;;;3.30;;
55575;SDS011;41437;45.478;9.116;2022-08-25T19:19:17;5.70;;;2.78;;
55575;SDS011;41437;45.478;9.116;2022-08-25T19:25:21;6.13;;;2.88;;
55575;SDS011;41437;45.478;9.116;2022-08-25T19:28:24;4.55;;;2.80;;
55575;SDS011;41437;45.478;9.116;2022-08-25T19:31:26;5.95;;;3.08;;
55575;SDS011;41437;45.478;9.116;2022-08-25T19:34:30;5.03;;;3.03;;
55575;SDS011;41437;45.478;9.116;2022-08-25T19:37:38;6.47;;;3.50;;
55575;SDS011;41437;45.478;9.116;2022-08-25T19:40:40;6.07;;;3.35;;
55575;SDS011;41437;45.478;9.116;2022-08-25T19:43:42;7.25;;;3.58;;
55575;SDS011;41437;45.478;9.116;2022-08-25T19:46:45;6.50;;;3.45;;
55575;SDS011;41437;45.478;9.116;2022-08-25T19:49:48;7.90;;;3.60;;
55575;SDS011;41437;45.478;9.116;2022-08-25T19:52:50;5.97;;;3.67;;
55575;SDS011;41437;45.478;9.116;2022-08-25T19:55:53;9.15;;;5.15;;
55575;SDS011;41437;45.478;9.116;2022-08-25T19:58:55;6.90;;;3.67;;
55575;SDS011;41437;45.478;9.116;2022-08-25T20:01:57;7.65;;;4.05;;
55575;SDS011;41437;45.478;9.116;2022-08-25T20:05:00;6.78;;;4.13;;
55575;SDS011;41437;45.478;9.116;2022-08-25T20:08:02;8.23;;;4.03;;
55575;SDS011;41437;45.478;9.116;2022-08-25T20:11:04;9.63;;;5.57;;
55575;SDS011;41437;45.478;9.116;2022-08-25T20:14:06;8.88;;;4.40;;
55575;SDS011;41437;45.478;9.116;2022-08-25T20:17:09;9.23;;;5.00;;
55575;SDS011;41437;45.478;9.116;2022-08-25T20:20:13;11.02;;;4.75;;
55575;SDS011;41437;45.478;9.116;2022-08-25T20:23:17;8.05;;;4.80;;
55575;SDS011;41437;45.478;9.116;2022-08-25T20:26:35;7.68;;;4.63;;
55575;SDS011;41437;45.478;9.116;2022-08-25T20:29:37;11.30;;;4.60;;
55575;SDS011;41437;45.478;9.116;2022-08-25T20:32:39;9.35;;;4.22;;
55575;SDS011;41437;45.478;9.116;2022-08-25T20:35:46;7.07;;;3.75;;
55575;SDS011;41437;45.478;9.116;2022-08-25T20:38:48;8.63;;;4.22;;
55575;SDS011;41437;45.478;9.116;2022-08-25T20:41:50;6.25;;;3.83;;
55575;SDS011;41437;45.478;9.116;2022-08-25T20:44:52;6.97;;;4.18;;
55575;SDS011;41437;45.478;9.116;2022-08-25T20:47:54;8.38;;;4.07;;
55575;SDS011;41437;45.478;9.116;2022-08-25T20:50:57;6.88;;;4.30;;
55575;SDS011;41437;45.478;9.116;2022-08-25T20:53:59;8.27;;;4.00;;
55575;SDS011;41437;45.478;9.116;2022-08-25T20:57:01;9.27;;;4.40;;
55575;SDS011;41437;45.478;9.116;2022-08-25T21:00:03;9.60;;;4.15;;
55575;SDS011;41437;45.478;9.116;2022-08-25T21:03:06;9.98;;;4.20;;
55575;SDS011;41437;45.478;9.116;2022-08-25T21:06:10;10.80;;;4.68;;
55575;SDS011;41437;45.478;9.116;2022-08-25T21:09:14;7.60;;;4.20;;
55575;SDS011;41437;45.478;9.116;2022-08-25T21:12:16;5.80;;;3.47;;
55575;SDS011;41437;45.478;9.116;2022-08-25T21:15:18;6.45;;;4.10;;
55575;SDS011;41437;45.478;9.116;2022-08-25T21:18:20;8.00;;;4.00;;
55575;SDS011;41437;45.478;9.116;2022-08-25T21:21:23;8.40;;;4.15;;
55575;SDS011;41437;45.478;9.116;2022-08-25T21:24:27;7.35;;;3.88;;
55575;SDS011;41437;45.478;9.116;2022-08-25T21:27:29;6.82;;;3.65;;
55575;SDS011;41437;45.478;9.116;2022-08-25T21:30:30;6.80;;;3.88;;
55575;SDS011;41437;45.478;9.116;2022-08-25T21:33:32;7.70;;;4.07;;
55575;SDS011;41437;45.478;9.116;2022-08-25T21:36:35;7.03;;;4.38;;
55575;SDS011;41437;45.478;9.116;2022-08-25T21:39:37;8.23;;;4.65;;
55575;SDS011;41437;45.478;9.116;2022-08-25T21:42:38;6.85;;;4.00;;
55575;SDS011;41437;45.478;9.116;2022-08-25T21:45:41;6.72;;;3.70;;
55575;SDS011;41437;45.478;9.116;2022-08-25T21:48:43;9.18;;;4.03;;
55575;SDS011;41437;45.478;9.116;2022-08-25T21:51:47;9.15;;;4.45;;
55575;SDS011;41437;45.478;9.116;2022-08-25T21:54:49;8.93;;;4.43;;
55575;SDS011;41437;45.478;9.116;2022-08-25T21:57:51;8.90;;;4.20;;
55575;SDS011;41437;45.478;9.116;2022-08-25T22:00:53;9.60;;;4.30;;
55575;SDS011;41437;45.478;9.116;2022-08-25T22:03:55;8.35;;;4.25;;
55575;SDS011;41437;45.478;9.116;2022-08-25T22:06:58;6.63;;;4.03;;
55575;SDS011;41437;45.478;9.116;2022-08-25T22:10:01;7.05;;;4.10;;
55575;SDS011;41437;45.478;9.116;2022-08-25T22:13:03;8.57;;;4.85;;
55575;SDS011;41437;45.478;9.116;2022-08-25T22:19:31;7.90;;;4.55;;
55575;SDS011;41437;45.478;9.116;2022-08-25T22:22:35;8.43;;;4.88;;
55575;SDS011;41437;45.478;9.116;2022-08-25T22:25:36;11.18;;;4.70;;
55575;SDS011;41437;45.478;9.116;2022-08-25T22:28:38;8.07;;;4.63;;
55575;SDS011;41437;45.478;9.116;2022-08-25T22:31:40;8.93;;;4.65;;
55575;SDS011;41437;45.478;9.116;2022-08-25T22:34:42;7.25;;;4.40;;
55575;SDS011;41437;45.478;9.116;2022-08-25T22:37:46;8.15;;;4.38;;
55575;SDS011;41437;45.478;9.116;2022-08-25T22:43:50;9.50;;;4.70;;
55575;SDS011;41437;45.478;9.116;2022-08-25T22:46:53;9.07;;;4.30;;
55575;SDS011;41437;45.478;9.116;2022-08-25T22:49:54;8.68;;;4.32;;
55575;SDS011;41437;45.478;9.116;2022-08-25T22:52:59;7.95;;;4.40;;
55575;SDS011;41437;45.478;9.116;2022-08-25T22:56:01;8.40;;;4.68;;
55575;SDS011;41437;45.478;9.116;2022-08-25T22:59:05;6.82;;;4.22;;
55575;SDS011;41437;45.478;9.116;2022-08-25T23:02:08;7.80;;;4.35;;
55575;SDS011;41437;45.478;9.116;2022-08-25T23:05:10;6.78;;;4.60;;
55575;SDS011;41437;45.478;9.116;2022-08-25T23:08:14;7.35;;;4.20;;
55575;SDS011;41437;45.478;9.116;2022-08-25T23:11:16;7.28;;;4.30;;
55575;SDS011;41437;45.478;9.116;2022-08-25T23:14:18;7.22;;;4.70;;
55575;SDS011;41437;45.478;9.116;2022-08-25T23:17:20;8.50;;;4.50;;
55575;SDS011;41437;45.478;9.116;2022-08-25T23:20:22;8.57;;;4.32;;
55575;SDS011;41437;45.478;9.116;2022-08-25T23:23:42;6.93;;;4.43;;
55575;SDS011;41437;45.478;9.116;2022-08-25T23:26:47;8.63;;;4.75;;
55575;SDS011;41437;45.478;9.116;2022-08-25T23:30:08;10.85;;;5.15;;
55575;SDS011;41437;45.478;9.116;2022-08-25T23:33:25;9.02;;;4.60;;
55575;SDS011;41437;45.478;9.116;2022-08-25T23:36:42;9.10;;;4.70;;
55575;SDS011;41437;45.478;9.116;2022-08-25T23:43:27;8.30;;;4.15;;
55575;SDS011;41437;45.478;9.116;2022-08-25T23:46:43;9.07;;;4.88;;
55575;SDS011;41437;45.478;9.116;2022-08-25T23:49:46;7.97;;;4.60;;
55575;SDS011;41437;45.478;9.116;2022-08-25T23:52:49;10.00;;;4.22;;
55575;SDS011;41437;45.478;9.116;2022-08-25T23:56:02;9.18;;;4.88;;
55575;SDS011;41437;45.478;9.116;2022-08-25T23:59:43;10.40;;;4.80;;
